createdAt,value
2023-02-19T00:00:36.605Z,33.33
2023-02-19T00:03:04.412Z,31.55
2023-02-19T00:05:35.246Z,41.90
2023-02-19T00:08:05.047Z,31.60
2023-02-19T00:10:35.717Z,28.73
2023-02-19T00:13:03.805Z,31.45
2023-02-19T00:15:34.912Z,26.35
2023-02-19T00:18:02.706Z,27.00
2023-02-19T00:20:35.873Z,27.60
2023-02-19T00:23:06.605Z,20.85
2023-02-19T00:25:38.189Z,26.40
2023-02-19T00:28:13.034Z,24.95
2023-02-19T00:30:43.275Z,27.00
2023-02-19T00:33:17.353Z,24.98
2023-02-19T00:35:45.453Z,22.67
2023-02-19T00:38:17.506Z,23.17
2023-02-19T00:43:15.364Z,25.27
2023-02-19T00:45:45.574Z,24.15
2023-02-19T00:48:16.006Z,29.33
2023-02-19T00:50:44.513Z,24.50
2023-02-19T00:53:13.110Z,23.38
2023-02-19T00:55:41.064Z,27.30
2023-02-19T00:58:08.856Z,25.23
2023-02-19T01:00:36.753Z,25.80
2023-02-19T01:03:04.526Z,24.35
2023-02-19T01:05:32.103Z,28.60
2023-02-19T01:07:59.833Z,26.20
2023-02-19T01:10:27.572Z,26.15
2023-02-19T01:12:57.886Z,25.17
2023-02-19T01:15:25.597Z,26.92
2023-02-19T01:17:54.166Z,25.13
2023-02-19T01:20:21.795Z,23.80
2023-02-19T01:22:49.448Z,24.38
2023-02-19T01:25:17.153Z,23.30
2023-02-19T01:27:53.521Z,27.67
2023-02-19T01:30:23.660Z,24.27
2023-02-19T01:32:51.621Z,26.77
2023-02-19T01:35:19.830Z,27.27
2023-02-19T01:37:47.392Z,24.00
2023-02-19T01:40:15.200Z,28.92
2023-02-19T01:42:56.120Z,23.00
2023-02-19T01:45:31.878Z,25.98
2023-02-19T01:48:12.332Z,24.05
2023-02-19T01:50:53.854Z,23.10
2023-02-19T01:53:32.028Z,23.00
2023-02-19T01:56:04.968Z,21.52
2023-02-19T01:58:39.774Z,23.30
2023-02-19T02:01:09.571Z,19.98
2023-02-19T02:03:41.958Z,22.10
2023-02-19T02:06:50.423Z,24.98
2023-02-19T02:09:45.818Z,25.52
2023-02-19T02:12:16.619Z,24.25
2023-02-19T02:14:48.952Z,24.47
2023-02-19T02:17:26.541Z,22.00
2023-02-19T02:20:44.935Z,26.17
2023-02-19T02:24:08.749Z,23.98
2023-02-19T02:27:06.947Z,21.20
2023-02-19T02:30:10.083Z,23.52
2023-02-19T02:32:56.505Z,21.17
2023-02-19T02:35:36.581Z,20.27
2023-02-19T02:38:11.181Z,23.88
2023-02-19T02:40:45.010Z,21.60
2023-02-19T02:43:15.976Z,21.75
2023-02-19T02:45:44.504Z,28.67
2023-02-19T02:49:00.558Z,22.17
2023-02-19T02:51:43.930Z,21.58
2023-02-19T02:54:52.522Z,23.60
2023-02-19T02:57:22.843Z,22.55
2023-02-19T02:59:55.323Z,31.52
2023-02-19T03:05:28.437Z,27.48
2023-02-19T03:08:17.581Z,27.13
2023-02-19T03:10:59.449Z,25.55
2023-02-19T03:13:54.604Z,23.60
2023-02-19T03:16:52.363Z,30.17
2023-02-19T03:19:25.543Z,24.45
2023-02-19T03:22:10.802Z,21.38
2023-02-19T03:25:07.950Z,27.08
2023-02-19T03:27:41.644Z,25.05
2023-02-19T03:30:19.116Z,22.73
2023-02-19T03:32:57.252Z,23.40
2023-02-19T03:35:31.916Z,23.77
2023-02-19T03:38:13.251Z,22.90
2023-02-19T03:40:58.858Z,22.95
2023-02-19T03:43:50.894Z,20.35
2023-02-19T03:46:43.296Z,19.00
2023-02-19T03:49:23.865Z,18.23
2023-02-19T03:52:09.660Z,21.60
2023-02-19T03:55:02.099Z,20.55
2023-02-19T03:58:24.433Z,19.65
2023-02-19T04:01:03.536Z,22.90
2023-02-19T04:03:46.846Z,23.33
2023-02-19T04:06:24.902Z,19.38
2023-02-19T04:08:58.717Z,23.88
2023-02-19T04:11:30.495Z,21.30
2023-02-19T04:14:18.003Z,17.65
2023-02-19T04:16:53.125Z,17.70
2023-02-19T04:19:25.956Z,21.52
2023-02-19T04:21:56.665Z,19.77
2023-02-19T04:24:37.366Z,23.88
2023-02-19T04:27:07.182Z,22.23
2023-02-19T04:29:34.680Z,20.30
2023-02-19T04:32:02.462Z,19.98
2023-02-19T04:34:29.929Z,22.63
2023-02-19T04:36:57.473Z,20.70
2023-02-19T04:39:24.952Z,22.38
2023-02-19T04:41:52.391Z,22.67
2023-02-19T04:44:20.382Z,24.40
2023-02-19T04:46:48.164Z,21.83
2023-02-19T04:49:15.645Z,21.08
2023-02-19T04:51:43.083Z,24.73
2023-02-19T04:54:10.546Z,18.05
2023-02-19T04:56:38.018Z,22.63
2023-02-19T04:59:05.847Z,20.75
2023-02-19T05:01:33.353Z,22.75
2023-02-19T05:04:00.919Z,21.25
2023-02-19T05:06:28.569Z,24.20
2023-02-19T05:08:56.089Z,19.27
2023-02-19T05:11:26.534Z,24.55
2023-02-19T05:13:56.308Z,19.48
2023-02-19T05:16:23.890Z,19.98
2023-02-19T05:18:51.322Z,22.30
2023-02-19T05:21:19.008Z,16.98
2023-02-19T05:23:46.436Z,23.13
2023-02-19T05:26:19.974Z,21.88
2023-02-19T05:28:53.211Z,19.52
2023-02-19T05:31:21.538Z,21.13
2023-02-19T05:33:51.080Z,17.90
2023-02-19T05:36:24.137Z,22.45
2023-02-19T05:38:57.099Z,17.40
2023-02-19T05:41:28.051Z,18.02
2023-02-19T05:43:57.416Z,23.42
2023-02-19T05:46:31.982Z,20.73
2023-02-19T05:48:59.715Z,19.30
2023-02-19T05:51:27.889Z,23.55
2023-02-19T05:53:56.997Z,21.50
2023-02-19T05:56:40.600Z,21.88
2023-02-19T05:59:15.877Z,24.35
2023-02-19T06:01:44.171Z,19.75
2023-02-19T06:04:12.981Z,22.55
2023-02-19T06:06:42.055Z,20.10
2023-02-19T06:09:11.011Z,20.40
2023-02-19T06:11:39.185Z,19.23
2023-02-19T06:14:07.304Z,24.25
2023-02-19T06:16:34.907Z,19.02
2023-02-19T06:19:04.099Z,18.75
2023-02-19T06:21:31.816Z,20.13
2023-02-19T06:23:59.370Z,22.95
2023-02-19T06:26:26.819Z,25.55
2023-02-19T06:28:54.669Z,27.33
2023-02-19T06:31:23.031Z,18.77
2023-02-19T06:33:50.779Z,17.60
2023-02-19T06:36:21.419Z,24.58
2023-02-19T06:38:49.030Z,23.58
2023-02-19T06:41:17.073Z,27.08
2023-02-19T06:43:44.704Z,22.40
2023-02-19T06:46:13.451Z,19.08
2023-02-19T06:48:44.887Z,24.00
2023-02-19T06:51:19.455Z,25.95
2023-02-19T06:53:46.921Z,26.50
2023-02-19T06:56:29.591Z,22.88
2023-02-19T06:59:01.958Z,21.08
2023-02-19T07:01:32.526Z,22.75
2023-02-19T07:04:00.568Z,16.63
2023-02-19T07:06:28.966Z,22.80
2023-02-19T07:08:58.944Z,22.27
2023-02-19T07:11:30.848Z,19.02
2023-02-19T07:14:00.661Z,21.65
2023-02-19T07:16:29.069Z,22.02
2023-02-19T07:18:58.483Z,22.55
2023-02-19T07:21:28.007Z,20.25
2023-02-19T07:23:56.421Z,19.63
2023-02-19T07:26:24.556Z,19.90
2023-02-19T07:28:52.431Z,26.15
2023-02-19T07:31:23.369Z,21.52
2023-02-19T07:33:52.738Z,19.40
2023-02-19T07:36:22.778Z,21.50
2023-02-19T07:38:58.019Z,18.77
2023-02-19T07:41:27.267Z,18.13
2023-02-19T07:43:58.226Z,20.33
2023-02-19T07:46:26.021Z,20.05
2023-02-19T07:48:53.752Z,17.73
2023-02-19T07:51:22.192Z,15.57
2023-02-19T07:54:04.732Z,17.38
2023-02-19T07:56:32.173Z,19.48
2023-02-19T07:59:00.753Z,23.33
2023-02-19T08:01:46.774Z,19.23
2023-02-19T08:04:15.664Z,21.60
2023-02-19T08:06:43.463Z,19.95
2023-02-19T08:09:11.560Z,18.35
2023-02-19T08:11:57.719Z,17.88
2023-02-19T08:14:27.351Z,13.60
2023-02-19T08:16:56.119Z,14.55
2023-02-19T08:19:24.117Z,18.10
2023-02-19T08:21:51.756Z,16.95
2023-02-19T08:24:19.362Z,18.60
2023-02-19T08:26:46.881Z,16.23
2023-02-19T08:29:14.362Z,15.70
2023-02-19T08:31:42.007Z,16.92
2023-02-19T08:34:09.501Z,17.42
2023-02-19T08:36:38.274Z,17.15
2023-02-19T08:39:05.753Z,16.70
2023-02-19T08:41:33.249Z,15.85
2023-02-19T08:44:00.738Z,17.02
2023-02-19T08:46:28.286Z,17.33
2023-02-19T08:48:55.815Z,17.05
2023-02-19T08:51:23.288Z,22.30
2023-02-19T08:53:50.727Z,21.08
2023-02-19T08:56:18.376Z,16.02
2023-02-19T08:58:45.880Z,14.90
2023-02-19T09:01:18.876Z,14.13
2023-02-19T09:03:46.549Z,16.15
2023-02-19T09:06:20.170Z,17.88
2023-02-19T09:08:47.862Z,12.07
2023-02-19T09:11:15.822Z,12.90
2023-02-19T09:13:43.858Z,17.77
2023-02-19T09:16:12.150Z,15.68
2023-02-19T09:18:40.047Z,17.08
2023-02-19T09:21:07.535Z,11.77
2023-02-19T09:23:36.858Z,15.60
2023-02-19T09:26:10.125Z,13.50
2023-02-19T09:28:39.694Z,14.02
2023-02-19T09:31:16.223Z,14.80
2023-02-19T09:33:48.749Z,10.07
2023-02-19T09:36:18.637Z,12.52
2023-02-19T09:38:46.325Z,12.77
2023-02-19T09:41:35.482Z,13.43
2023-02-19T09:44:07.310Z,9.80
2023-02-19T09:46:49.973Z,8.75
2023-02-19T09:49:30.920Z,8.30
2023-02-19T09:52:08.538Z,7.40
2023-02-19T09:54:39.092Z,8.75
2023-02-19T09:57:16.378Z,8.43
2023-02-19T10:00:11.830Z,8.98
2023-02-19T10:02:39.375Z,9.40
2023-02-19T10:05:14.417Z,6.25
2023-02-19T10:07:47.415Z,7.47
2023-02-19T10:10:14.757Z,9.13
2023-02-19T10:12:53.955Z,9.63
2023-02-19T10:15:41.839Z,11.10
2023-02-19T10:18:11.164Z,11.38
2023-02-19T10:20:40.172Z,13.60
2023-02-19T10:23:15.726Z,13.10
2023-02-19T10:28:40.722Z,11.60
2023-02-19T10:31:22.117Z,10.43
2023-02-19T10:34:01.986Z,12.75
2023-02-19T10:36:37.629Z,12.68
2023-02-19T10:39:42.313Z,13.13
2023-02-19T10:42:23.288Z,9.98
2023-02-19T10:45:01.919Z,11.00
2023-02-19T10:47:33.235Z,10.50
2023-02-19T10:50:04.140Z,8.85
2023-02-19T10:52:36.649Z,9.32
2023-02-19T10:55:19.456Z,10.23
2023-02-19T10:57:47.133Z,7.90
2023-02-19T11:00:30.451Z,8.57
2023-02-19T11:03:21.410Z,8.20
2023-02-19T11:06:03.068Z,7.63
2023-02-19T11:08:52.329Z,9.60
2023-02-19T11:11:30.574Z,8.43
2023-02-19T11:14:05.127Z,9.18
2023-02-19T11:16:47.745Z,7.82
2023-02-19T11:19:48.723Z,7.07
2023-02-19T11:22:46.861Z,10.25
2023-02-19T11:25:17.681Z,11.05
2023-02-19T11:28:24.332Z,6.50
2023-02-19T11:30:52.472Z,9.63
2023-02-19T11:33:29.909Z,10.43
2023-02-19T11:36:15.684Z,10.52
2023-02-19T11:38:43.781Z,12.02
2023-02-19T11:41:24.140Z,10.82
2023-02-19T11:44:04.240Z,11.10
2023-02-19T11:47:04.513Z,8.38
2023-02-19T11:49:55.738Z,11.05
2023-02-19T11:52:44.488Z,12.55
2023-02-19T11:55:32.521Z,11.85
2023-02-19T11:58:39.527Z,10.18
2023-02-19T12:01:32.288Z,9.43
2023-02-19T12:05:01.853Z,8.73
2023-02-19T12:08:21.271Z,9.65
2023-02-19T12:11:21.176Z,8.60
2023-02-19T12:14:16.824Z,11.30
2023-02-19T12:17:33.743Z,8.23
2023-02-19T12:20:18.580Z,12.40
2023-02-19T12:23:24.024Z,10.05
2023-02-19T12:26:03.301Z,10.27
2023-02-19T12:29:13.925Z,10.00
2023-02-19T12:32:06.222Z,8.75
2023-02-19T12:35:01.307Z,10.95
2023-02-19T12:37:50.065Z,8.45
2023-02-19T12:40:26.075Z,8.32
2023-02-19T12:43:19.648Z,9.55
2023-02-19T12:46:08.565Z,9.38
2023-02-19T12:48:39.779Z,6.65
2023-02-19T12:51:21.293Z,5.70
2023-02-19T12:54:06.008Z,8.68
2023-02-19T12:56:41.906Z,5.75
2023-02-19T12:59:28.170Z,9.20
2023-02-19T13:02:10.913Z,7.95
2023-02-19T13:05:11.045Z,9.20
2023-02-19T13:08:00.159Z,5.97
2023-02-19T13:10:37.712Z,8.45
2023-02-19T13:13:17.644Z,6.97
2023-02-19T13:15:56.808Z,8.52
2023-02-19T13:18:42.844Z,8.82
2023-02-19T13:21:35.320Z,9.82
2023-02-19T13:24:10.002Z,8.57
2023-02-19T13:26:49.200Z,8.05
2023-02-19T13:29:51.400Z,7.40
2023-02-19T13:32:55.611Z,7.38
2023-02-19T13:35:41.903Z,6.55
2023-02-19T13:38:13.113Z,5.55
2023-02-19T13:41:00.274Z,3.47
2023-02-19T13:43:38.912Z,3.60
2023-02-19T13:46:16.341Z,3.95
2023-02-19T13:48:44.695Z,5.15
2023-02-19T13:51:24.675Z,3.50
2023-02-19T13:53:52.180Z,3.30
2023-02-19T13:56:34.601Z,3.97
2023-02-19T13:59:11.046Z,4.90
2023-02-19T14:01:58.794Z,4.82
2023-02-19T14:04:50.283Z,5.45
2023-02-19T14:07:17.693Z,3.97
2023-02-19T14:09:47.564Z,5.68
2023-02-19T14:12:16.038Z,5.80
2023-02-19T14:14:56.840Z,5.68
2023-02-19T14:17:34.923Z,4.75
2023-02-19T14:20:17.888Z,4.97
2023-02-19T14:22:57.694Z,6.53
2023-02-19T14:25:31.229Z,6.47
2023-02-19T14:28:04.664Z,7.20
2023-02-19T14:30:40.683Z,7.72
2023-02-19T14:33:11.426Z,8.50
2023-02-19T14:35:44.022Z,7.97
2023-02-19T14:38:27.581Z,12.35
2023-02-19T14:40:56.409Z,10.52
2023-02-19T14:43:28.141Z,9.88
2023-02-19T14:48:39.541Z,11.13
2023-02-19T14:51:31.724Z,9.70
2023-02-19T14:54:17.591Z,9.23
2023-02-19T14:56:52.752Z,11.52
2023-02-19T14:59:20.309Z,8.15
2023-02-19T15:02:02.816Z,7.90
2023-02-19T15:04:37.487Z,8.38
2023-02-19T15:07:10.584Z,6.65
2023-02-19T15:09:45.339Z,7.95
2023-02-19T15:12:25.382Z,8.43
2023-02-19T15:15:00.096Z,6.53
2023-02-19T15:17:39.877Z,6.65
2023-02-19T15:20:17.168Z,7.13
2023-02-19T15:22:46.311Z,7.40
2023-02-19T15:25:21.097Z,7.63
2023-02-19T15:27:50.225Z,7.47
2023-02-19T15:30:29.483Z,7.30
2023-02-19T15:33:00.207Z,7.15
2023-02-19T15:35:30.339Z,8.77
2023-02-19T15:37:58.044Z,10.63
2023-02-19T15:40:31.049Z,6.72
2023-02-19T15:43:00.769Z,8.40
2023-02-19T15:45:36.492Z,9.40
2023-02-19T15:48:18.356Z,8.88
2023-02-19T15:53:30.664Z,8.25
2023-02-19T15:56:04.770Z,9.85
2023-02-19T15:58:45.626Z,9.68
2023-02-19T16:01:25.288Z,9.98
2023-02-19T16:03:54.313Z,15.13
2023-02-19T16:06:24.807Z,8.75
2023-02-19T16:08:52.248Z,9.93
2023-02-19T16:11:22.610Z,12.05
2023-02-19T16:14:13.341Z,8.90
2023-02-19T16:16:43.732Z,7.25
2023-02-19T16:19:11.760Z,7.03
2023-02-19T16:21:43.535Z,5.75
2023-02-19T16:26:46.002Z,5.45
2023-02-19T16:29:22.412Z,6.07
2023-02-19T16:32:03.420Z,8.00
2023-02-19T16:34:43.521Z,6.10
2023-02-19T16:37:41.204Z,6.78
2023-02-19T16:40:08.808Z,6.20
2023-02-19T16:42:58.153Z,7.85
2023-02-19T16:45:27.483Z,6.50
2023-02-19T16:47:55.253Z,7.43
2023-02-19T16:50:26.918Z,6.90
2023-02-19T16:55:29.369Z,8.45
2023-02-19T16:57:57.042Z,6.60
2023-02-19T17:00:28.506Z,7.15
2023-02-19T17:03:02.488Z,7.10
2023-02-19T17:05:32.544Z,6.65
2023-02-19T17:08:00.172Z,7.05
2023-02-19T17:10:28.599Z,6.72
2023-02-19T17:12:56.433Z,7.00
2023-02-19T17:15:23.998Z,6.50
2023-02-19T17:17:51.601Z,6.35
2023-02-19T17:20:27.601Z,8.23
2023-02-19T17:22:55.961Z,6.88
2023-02-19T17:25:23.662Z,7.03
2023-02-19T17:27:51.266Z,6.30
2023-02-19T17:30:27.886Z,7.22
2023-02-19T17:32:55.540Z,8.07
2023-02-19T17:35:23.629Z,8.18
2023-02-19T17:37:53.299Z,7.90
2023-02-19T17:40:33.729Z,8.88
2023-02-19T17:43:02.108Z,8.05
2023-02-19T17:45:30.307Z,8.88
2023-02-19T17:47:57.909Z,9.38
2023-02-19T17:50:32.700Z,8.80
2023-02-19T17:53:00.413Z,8.73
2023-02-19T17:55:27.956Z,9.15
2023-02-19T17:57:55.604Z,8.32
2023-02-19T18:00:33.657Z,9.45
2023-02-19T18:03:04.451Z,10.18
2023-02-19T18:05:31.946Z,9.10
2023-02-19T18:07:59.954Z,11.10
2023-02-19T18:10:27.504Z,8.68
2023-02-19T18:12:55.089Z,8.40
2023-02-19T18:15:28.800Z,9.00
2023-02-19T18:17:58.316Z,7.43
2023-02-19T18:20:28.785Z,9.40
2023-02-19T18:22:57.080Z,9.90
2023-02-19T18:25:25.125Z,8.40
2023-02-19T18:27:53.586Z,8.98
2023-02-19T18:30:23.017Z,7.47
2023-02-19T18:32:51.648Z,7.65
2023-02-19T18:35:20.934Z,7.63
2023-02-19T18:37:54.101Z,7.60
2023-02-19T18:40:25.906Z,8.65
2023-02-19T18:42:54.443Z,7.13
2023-02-19T18:45:22.509Z,7.30
2023-02-19T18:47:50.887Z,8.13
2023-02-19T18:50:19.894Z,6.47
2023-02-19T18:52:47.546Z,6.00
2023-02-19T18:55:15.263Z,7.38
2023-02-19T18:57:42.848Z,6.03
2023-02-19T19:00:20.178Z,5.80
2023-02-19T19:02:50.559Z,5.50
2023-02-19T19:05:22.985Z,6.25
2023-02-19T19:10:21.259Z,5.43
2023-02-19T19:12:49.178Z,5.55
2023-02-19T19:15:18.581Z,7.35
2023-02-19T19:17:48.571Z,5.65
2023-02-19T19:20:21.869Z,6.47
2023-02-19T19:22:51.940Z,6.50
2023-02-19T19:25:21.052Z,10.00
2023-02-19T19:27:50.773Z,9.48
2023-02-19T19:30:20.121Z,8.70
2023-02-19T19:32:52.617Z,9.77
2023-02-19T19:35:22.052Z,9.13
2023-02-19T19:37:49.752Z,9.10
2023-02-19T19:40:18.544Z,7.72
2023-02-19T19:42:46.871Z,6.38
2023-02-19T19:45:15.387Z,7.93
2023-02-19T19:47:43.154Z,5.68
2023-02-19T19:50:13.082Z,5.80
2023-02-19T19:52:40.703Z,7.35
2023-02-19T19:55:08.980Z,7.78
2023-02-19T19:57:38.493Z,6.95
2023-02-19T20:00:08.808Z,6.38
2023-02-19T20:02:42.071Z,7.03
2023-02-19T20:05:10.072Z,6.63
2023-02-19T20:07:37.767Z,7.97
2023-02-19T20:10:07.636Z,7.05
2023-02-19T20:12:35.214Z,8.90
2023-02-19T20:15:02.776Z,8.02
2023-02-19T20:17:30.274Z,8.20
2023-02-19T20:19:57.872Z,9.80
2023-02-19T20:22:25.479Z,8.65
2023-02-19T20:24:54.723Z,8.23
2023-02-19T20:27:23.785Z,8.63
2023-02-19T20:29:51.369Z,7.03
2023-02-19T20:32:18.909Z,9.82
2023-02-19T20:34:48.227Z,6.72
2023-02-19T20:37:15.833Z,8.60
2023-02-19T20:39:43.734Z,7.28
2023-02-19T20:42:11.324Z,6.85
2023-02-19T20:44:38.826Z,6.80
2023-02-19T20:47:06.363Z,8.35
2023-02-19T20:49:34.490Z,7.72
2023-02-19T20:52:07.021Z,8.00
2023-02-19T20:54:35.988Z,7.47
2023-02-19T20:57:05.733Z,9.52
2023-02-19T20:59:38.714Z,6.80
2023-02-19T21:02:14.023Z,8.43
2023-02-19T21:04:41.569Z,9.60
2023-02-19T21:07:09.248Z,6.80
2023-02-19T21:09:36.771Z,15.60
2023-02-19T21:12:04.600Z,7.07
2023-02-19T21:14:32.048Z,8.00
2023-02-19T21:16:59.715Z,8.80
2023-02-19T21:19:27.708Z,7.45
2023-02-19T21:21:55.182Z,6.47
2023-02-19T21:24:22.899Z,7.35
2023-02-19T21:26:50.432Z,6.63
2023-02-19T21:29:21.797Z,5.93
2023-02-19T21:31:54.498Z,8.35
2023-02-19T21:34:27.366Z,7.45
2023-02-19T21:36:56.837Z,6.75
2023-02-19T21:39:27.406Z,8.02
2023-02-19T21:41:55.047Z,7.45
2023-02-19T21:44:22.768Z,5.68
2023-02-19T21:46:50.927Z,6.78
2023-02-19T21:49:18.735Z,7.47
2023-02-19T21:51:48.588Z,7.72
2023-02-19T21:54:24.689Z,7.05
2023-02-19T21:56:53.565Z,6.85
2023-02-19T21:59:22.850Z,6.53
2023-02-19T22:01:50.737Z,7.88
2023-02-19T22:04:21.826Z,6.95
2023-02-19T22:06:49.393Z,6.65
2023-02-19T22:09:17.108Z,7.35
2023-02-19T22:11:44.591Z,7.93
2023-02-19T22:14:12.174Z,9.77
2023-02-19T22:16:39.786Z,9.10
2023-02-19T22:19:07.283Z,10.18
2023-02-19T22:21:35.906Z,9.18
2023-02-19T22:24:03.950Z,8.25
2023-02-19T22:26:34.810Z,9.18
2023-02-19T22:29:07.123Z,9.40
2023-02-19T22:31:35.828Z,11.90
2023-02-19T22:34:04.600Z,10.77
2023-02-19T22:36:34.215Z,13.90
2023-02-19T22:39:01.986Z,10.15
2023-02-19T22:41:29.657Z,10.30
2023-02-19T22:43:58.652Z,10.80
2023-02-19T22:46:31.234Z,12.55
2023-02-19T22:49:05.706Z,15.75
2023-02-19T22:51:35.559Z,13.85
2023-02-19T22:54:03.283Z,14.13
2023-02-19T22:56:31.123Z,16.38
2023-02-19T22:58:59.212Z,15.60
2023-02-19T23:01:26.847Z,17.17
2023-02-19T23:03:58.212Z,18.42
2023-02-19T23:06:36.068Z,16.65
2023-02-19T23:09:13.747Z,18.60
2023-02-19T23:11:41.397Z,21.30
2023-02-19T23:14:08.975Z,17.58
2023-02-19T23:16:36.760Z,19.30
2023-02-19T23:19:11.508Z,22.40
2023-02-19T23:21:41.870Z,18.85
2023-02-19T23:24:11.625Z,19.48
2023-02-19T23:26:52.781Z,19.60
2023-02-19T23:29:27.549Z,18.80
2023-02-19T23:31:55.372Z,19.95
2023-02-19T23:34:24.391Z,20.52
2023-02-19T23:36:52.376Z,22.60
2023-02-19T23:39:22.675Z,19.83
2023-02-19T23:41:55.716Z,20.45
2023-02-19T23:44:25.625Z,18.90
2023-02-19T23:46:53.299Z,20.10
2023-02-19T23:49:21.809Z,18.65
2023-02-19T23:51:49.442Z,19.55
2023-02-19T23:54:17.114Z,21.33
2023-02-19T23:56:44.814Z,20.98
2023-02-19T23:59:12.523Z,18.92
